createdAt,value
2018-06-14T00:00:46.343Z,55.51
2018-06-14T00:01:46.312Z,55.59
2018-06-14T00:02:46.412Z,55.64
2018-06-14T00:03:46.348Z,55.58
2018-06-14T00:04:46.465Z,55.48
2018-06-14T00:05:46.223Z,55.54
2018-06-14T00:06:46.287Z,55.64
2018-06-14T00:07:46.469Z,55.59
2018-06-14T00:08:46.412Z,55.64
2018-06-14T00:09:46.412Z,55.65
2018-06-14T00:10:46.407Z,55.62
2018-06-14T00:11:46.453Z,55.52
2018-06-14T00:12:46.515Z,55.57
2018-06-14T00:13:46.378Z,55.58
2018-06-14T00:14:46.449Z,55.56
2018-06-14T00:15:46.489Z,55.61
2018-06-14T00:16:46.290Z,55.62
2018-06-14T00:17:46.421Z,55.58
2018-06-14T00:18:46.410Z,55.55
2018-06-14T00:19:46.318Z,55.6
2018-06-14T00:20:46.599Z,55.66
2018-06-14T00:21:46.242Z,55.58
2018-06-14T00:22:46.397Z,55.59
2018-06-14T00:23:46.437Z,55.6
2018-06-14T00:24:46.651Z,55.51
2018-06-14T00:25:46.222Z,55.66
2018-06-14T00:26:46.427Z,55.58
2018-06-14T00:27:46.322Z,55.61
2018-06-14T00:28:46.365Z,55.52
2018-06-14T00:29:46.400Z,55.63
2018-06-14T00:30:46.636Z,55.63
2018-06-14T00:31:46.358Z,55.51
2018-06-14T00:32:46.378Z,55.56
2018-06-14T00:33:46.644Z,55.65
2018-06-14T00:34:46.306Z,55.62
2018-06-14T00:35:46.379Z,55.66
2018-06-14T00:36:46.398Z,55.43
2018-06-14T00:37:46.531Z,55.47
2018-06-14T00:38:46.694Z,55.53
2018-06-14T00:39:46.296Z,55.62
2018-06-14T00:40:46.337Z,55.53
2018-06-14T00:41:46.374Z,55.63
2018-06-14T00:42:46.448Z,55.61
2018-06-14T00:43:46.313Z,55.57
2018-06-14T00:44:46.361Z,55.61
2018-06-14T00:45:46.435Z,55.65
2018-06-14T00:46:46.517Z,55.62
2018-06-14T00:47:46.422Z,55.59
2018-06-14T00:48:46.326Z,55.55
2018-06-14T00:49:46.548Z,55.62
2018-06-14T00:50:46.607Z,55.65
2018-06-14T00:51:46.344Z,55.63
2018-06-14T00:52:56.271Z,55.62
2018-06-14T00:53:46.534Z,55.73
2018-06-14T00:54:46.306Z,55.55
2018-06-14T00:55:46.479Z,55.56
2018-06-14T00:56:46.499Z,55.55
2018-06-14T00:57:46.275Z,55.7
2018-06-14T00:58:46.437Z,55.58
2018-06-14T00:59:46.347Z,55.49
2018-06-14T01:00:46.397Z,55.53
2018-06-14T01:01:46.423Z,55.6
2018-06-14T01:02:46.481Z,55.6
2018-06-14T01:03:46.463Z,55.68
2018-06-14T01:04:46.522Z,55.57
2018-06-14T01:05:46.276Z,55.71
2018-06-14T01:06:46.534Z,55.73
2018-06-14T01:07:46.448Z,55.62
2018-06-14T01:08:46.429Z,55.67
2018-06-14T01:09:46.271Z,55.64
2018-06-14T01:10:46.461Z,55.71
2018-06-14T01:11:46.467Z,55.55
2018-06-14T01:12:46.533Z,55.46
2018-06-14T01:13:46.215Z,55.64
2018-06-14T01:14:46.281Z,55.69
2018-06-14T01:15:46.420Z,55.63
2018-06-14T01:16:46.296Z,55.59
2018-06-14T01:17:46.482Z,55.64
2018-06-14T01:18:46.348Z,55.63
2018-06-14T01:19:46.500Z,55.65
2018-06-14T01:20:46.387Z,55.58
2018-06-14T01:21:46.290Z,55.61
2018-06-14T01:22:46.244Z,55.47
2018-06-14T01:23:46.374Z,55.8
2018-06-14T01:24:46.370Z,55.7
2018-06-14T01:25:46.412Z,55.64
2018-06-14T01:26:46.551Z,55.6
2018-06-14T01:27:46.304Z,55.53
2018-06-14T01:28:46.829Z,55.58
2018-06-14T01:29:46.421Z,55.62
2018-06-14T01:30:46.433Z,55.6
2018-06-14T01:31:46.289Z,55.62
2018-06-14T01:32:46.298Z,55.65
2018-06-14T01:33:46.379Z,55.74
2018-06-14T01:34:46.505Z,55.57
2018-06-14T01:35:46.449Z,55.83
2018-06-14T01:36:46.390Z,55.77
2018-06-14T01:37:46.479Z,55.7
2018-06-14T01:38:46.338Z,55.71
2018-06-14T01:39:46.466Z,55.61
2018-06-14T01:40:46.277Z,55.53
2018-06-14T01:41:46.461Z,55.76
2018-06-14T01:42:46.384Z,55.67
2018-06-14T01:43:46.485Z,55.71
2018-06-14T01:44:46.326Z,55.7
2018-06-14T01:45:46.398Z,55.69
2018-06-14T01:46:46.237Z,55.6
2018-06-14T01:47:46.413Z,55.68
2018-06-14T01:48:46.332Z,55.55
2018-06-14T01:49:46.181Z,55.61
2018-06-14T01:50:46.330Z,55.6
2018-06-14T01:51:46.391Z,55.65
2018-06-14T01:52:46.444Z,55.47
2018-06-14T01:53:46.450Z,55.7
2018-06-14T01:54:46.265Z,55.67
2018-06-14T01:55:46.324Z,55.69
2018-06-14T01:56:46.658Z,55.58
2018-06-14T01:57:46.286Z,55.68
2018-06-14T01:58:46.347Z,55.77
2018-06-14T01:59:46.331Z,55.61
2018-06-14T02:00:46.374Z,55.56
2018-06-14T02:01:46.229Z,55.74
2018-06-14T02:02:46.622Z,55.59
2018-06-14T02:03:46.419Z,55.66
2018-06-14T02:04:46.244Z,55.65
2018-06-14T02:05:46.515Z,55.74
2018-06-14T02:06:46.412Z,55.67
2018-06-14T02:07:46.269Z,55.64
2018-06-14T02:08:46.303Z,55.75
2018-06-14T02:09:46.328Z,55.82
2018-06-14T02:10:46.442Z,55.88
2018-06-14T02:11:46.392Z,55.6
2018-06-14T02:12:46.331Z,55.63
2018-06-14T02:13:46.374Z,55.78
2018-06-14T02:14:46.430Z,55.59
2018-06-14T02:15:46.375Z,55.7
2018-06-14T02:16:46.353Z,55.76
2018-06-14T02:17:46.250Z,55.58
2018-06-14T02:18:46.416Z,55.51
2018-06-14T02:19:46.452Z,55.64
2018-06-14T02:20:46.301Z,55.66
2018-06-14T02:21:46.378Z,55.63
2018-06-14T02:22:46.344Z,55.67
2018-06-14T02:23:46.383Z,55.62
2018-06-14T02:24:46.391Z,55.76
2018-06-14T02:25:46.323Z,55.55
2018-06-14T02:26:46.285Z,55.56
2018-06-14T02:27:46.492Z,55.62
2018-06-14T02:28:46.349Z,55.63
2018-06-14T02:29:46.337Z,55.67
2018-06-14T02:30:46.355Z,55.67
2018-06-14T02:31:46.395Z,55.66
2018-06-14T02:32:46.372Z,55.74
2018-06-14T02:33:46.336Z,55.76
2018-06-14T02:34:46.216Z,55.62
2018-06-14T02:35:46.309Z,55.72
2018-06-14T02:36:46.493Z,55.67
2018-06-14T02:37:46.640Z,55.63
2018-06-14T02:38:46.652Z,55.66
2018-06-14T02:39:46.428Z,55.63
2018-06-14T02:40:46.369Z,55.66
2018-06-14T02:41:46.387Z,55.74
2018-06-14T02:42:46.325Z,55.7
2018-06-14T02:43:46.325Z,55.62
2018-06-14T02:44:46.562Z,55.66
2018-06-14T02:45:46.347Z,55.7
2018-06-14T02:46:46.237Z,55.71
2018-06-14T02:47:46.314Z,55.73
2018-06-14T02:48:46.274Z,55.71
2018-06-14T02:49:46.371Z,55.69
2018-06-14T02:50:46.432Z,55.64
2018-06-14T02:51:46.404Z,55.78
2018-06-14T02:52:46.327Z,55.67
2018-06-14T02:53:46.275Z,55.79
2018-06-14T02:54:46.388Z,55.68
2018-06-14T02:55:46.358Z,55.83
2018-06-14T02:56:46.477Z,55.69
2018-06-14T02:57:46.265Z,55.7
2018-06-14T02:58:46.368Z,55.67
2018-06-14T02:59:46.340Z,55.65
2018-06-14T03:00:46.189Z,55.61
2018-06-14T03:01:46.412Z,55.65
2018-06-14T03:02:46.479Z,55.63
2018-06-14T03:03:56.349Z,55.67
2018-06-14T03:04:46.587Z,55.67
2018-06-14T03:05:46.552Z,55.69
2018-06-14T03:06:46.416Z,55.71
2018-06-14T03:07:46.597Z,55.72
2018-06-14T03:08:46.127Z,55.62
2018-06-14T03:09:46.256Z,55.79
2018-06-14T03:10:46.405Z,55.61
2018-06-14T03:11:46.420Z,55.72
2018-06-14T03:12:46.419Z,55.62
2018-06-14T03:13:46.323Z,55.63
2018-06-14T03:14:46.324Z,55.66
2018-06-14T03:15:46.333Z,55.71
2018-06-14T03:16:46.449Z,55.75
2018-06-14T03:17:46.539Z,55.67
2018-06-14T03:18:46.318Z,55.62
2018-06-14T03:19:46.328Z,55.71
2018-06-14T03:20:46.391Z,55.63
2018-06-14T03:21:46.379Z,55.64
2018-06-14T03:22:46.393Z,55.73
2018-06-14T03:23:46.252Z,55.62
2018-06-14T03:24:46.233Z,55.67
2018-06-14T03:25:46.639Z,55.63
2018-06-14T03:26:46.208Z,55.62
2018-06-14T03:27:46.408Z,55.63
2018-06-14T03:28:46.506Z,55.69
2018-06-14T03:29:46.357Z,55.55
2018-06-14T03:30:46.317Z,55.56
2018-06-14T03:31:46.274Z,55.62
2018-06-14T03:32:46.201Z,55.74
2018-06-14T03:33:46.307Z,55.63
2018-06-14T03:34:46.434Z,55.58
2018-06-14T03:35:46.434Z,55.68
2018-06-14T03:36:46.278Z,55.66
2018-06-14T03:37:46.376Z,55.6
2018-06-14T03:38:46.217Z,55.62
2018-06-14T03:39:46.411Z,55.57
2018-06-14T03:40:46.542Z,55.7
2018-06-14T03:41:46.311Z,55.39
2018-06-14T03:42:46.258Z,55.72
2018-06-14T03:43:46.429Z,55.64
2018-06-14T03:44:46.202Z,55.65
2018-06-14T03:45:46.350Z,55.58
2018-06-14T03:46:46.382Z,55.77
2018-06-14T03:47:46.571Z,55.5
2018-06-14T03:48:46.296Z,55.7
2018-06-14T03:49:46.500Z,55.63
2018-06-14T03:50:46.486Z,55.69
2018-06-14T03:51:46.201Z,55.61
2018-06-14T03:52:46.491Z,55.59
2018-06-14T03:53:46.244Z,55.66
2018-06-14T03:54:46.401Z,55.6
2018-06-14T03:55:46.204Z,55.61
2018-06-14T03:56:46.319Z,55.64
2018-06-14T03:57:46.343Z,55.71
2018-06-14T03:58:46.389Z,55.75
2018-06-14T03:59:46.302Z,55.55
2018-06-14T04:00:46.193Z,55.58
2018-06-14T04:01:46.400Z,55.68
2018-06-14T04:02:46.303Z,55.68
2018-06-14T04:03:46.417Z,55.68
2018-06-14T04:04:46.290Z,55.59
2018-06-14T04:05:46.476Z,55.7
2018-06-14T04:06:46.327Z,55.59
2018-06-14T04:07:46.349Z,55.68
2018-06-14T04:08:46.350Z,55.7
2018-06-14T04:09:46.177Z,55.72
2018-06-14T04:10:46.307Z,55.55
2018-06-14T04:11:46.308Z,55.6
2018-06-14T04:12:46.329Z,55.55
2018-06-14T04:13:46.421Z,55.56
2018-06-14T04:14:46.306Z,55.47
2018-06-14T04:15:46.376Z,55.63
2018-06-14T04:16:46.437Z,55.62
2018-06-14T04:17:46.484Z,55.79
2018-06-14T04:18:46.479Z,55.6
2018-06-14T04:19:46.456Z,55.6
2018-06-14T04:20:46.438Z,55.56
2018-06-14T04:21:46.374Z,55.56
2018-06-14T04:22:46.436Z,55.62
2018-06-14T04:23:46.411Z,55.54
2018-06-14T04:24:46.402Z,55.6
2018-06-14T04:25:46.275Z,55.62
2018-06-14T04:26:46.386Z,55.59
2018-06-14T04:27:56.404Z,55.66
2018-06-14T04:28:46.532Z,55.67
2018-06-14T04:29:46.336Z,55.56
2018-06-14T04:30:46.255Z,55.57
2018-06-14T04:31:46.393Z,55.4
2018-06-14T04:32:46.295Z,55.71
2018-06-14T04:33:46.371Z,55.62
2018-06-14T04:34:46.249Z,55.55
2018-06-14T04:35:46.339Z,55.68
2018-06-14T04:36:46.416Z,55.59
2018-06-14T04:37:46.494Z,55.48
2018-06-14T04:38:46.279Z,55.67
2018-06-14T04:39:46.389Z,55.6
2018-06-14T04:40:46.268Z,55.66
2018-06-14T04:41:46.188Z,55.61
2018-06-14T04:42:46.153Z,55.62
2018-06-14T04:43:46.327Z,55.65
2018-06-14T04:44:46.424Z,55.74
2018-06-14T04:45:46.432Z,55.51
2018-06-14T04:46:46.336Z,55.61
2018-06-14T04:47:46.205Z,55.66
2018-06-14T04:48:46.337Z,55.66
2018-06-14T04:49:46.218Z,55.57
2018-06-14T04:50:46.177Z,55.67
2018-06-14T04:51:46.339Z,55.69
2018-06-14T04:52:46.186Z,55.52
2018-06-14T04:53:46.223Z,55.66
2018-06-14T04:54:46.288Z,55.63
2018-06-14T04:55:46.415Z,55.68
2018-06-14T04:56:46.244Z,55.65
2018-06-14T04:57:46.362Z,55.48
2018-06-14T04:58:46.555Z,55.61
2018-06-14T04:59:46.193Z,55.52
2018-06-14T05:00:46.318Z,55.58
2018-06-14T05:01:46.575Z,55.66
2018-06-14T05:02:46.610Z,55.66
2018-06-14T05:03:46.226Z,55.57
2018-06-14T05:04:46.424Z,55.66
2018-06-14T05:05:46.785Z,55.59
2018-06-14T05:06:46.275Z,55.66
2018-06-14T05:07:46.245Z,55.69
2018-06-14T05:08:46.387Z,55.67
2018-06-14T05:09:46.605Z,55.72
2018-06-14T05:10:46.228Z,55.51
2018-06-14T05:11:46.324Z,55.6
2018-06-14T05:12:46.399Z,55.6
2018-06-14T05:13:46.623Z,55.56
2018-06-14T05:14:46.360Z,55.6
2018-06-14T05:15:46.193Z,55.72
2018-06-14T05:16:46.451Z,55.63
2018-06-14T05:17:46.285Z,55.57
2018-06-14T05:18:46.389Z,55.6
2018-06-14T05:20:01.668Z,55.66
2018-06-14T05:20:46.271Z,55.63
2018-06-14T05:21:46.246Z,55.63
2018-06-14T05:22:46.613Z,55.76
2018-06-14T05:23:46.452Z,55.66
2018-06-14T05:24:56.304Z,55.55
2018-06-14T05:25:46.507Z,55.73
2018-06-14T05:26:46.328Z,55.67
2018-06-14T05:27:46.278Z,55.71
2018-06-14T05:28:46.402Z,55.55
2018-06-14T05:29:46.175Z,55.61
2018-06-14T05:30:46.238Z,55.69
2018-06-14T05:31:46.323Z,55.63
2018-06-14T05:32:46.209Z,55.5
2018-06-14T05:33:46.510Z,55.76
2018-06-14T05:34:46.332Z,55.65
2018-06-14T05:35:46.412Z,55.56
2018-06-14T05:36:46.262Z,55.51
2018-06-14T05:37:46.452Z,55.48
2018-06-14T05:38:46.447Z,55.52
2018-06-14T05:39:46.183Z,55.59
2018-06-14T05:40:46.307Z,55.62
2018-06-14T05:41:46.257Z,55.61
2018-06-14T05:42:46.580Z,55.64
2018-06-14T05:43:46.455Z,55.65
2018-06-14T05:44:46.236Z,55.59
2018-06-14T05:45:46.168Z,55.64
2018-06-14T05:46:46.429Z,55.6
2018-06-14T05:47:46.409Z,55.65
2018-06-14T05:48:46.311Z,55.71
2018-06-14T05:49:46.325Z,55.7
2018-06-14T05:50:46.427Z,55.67
2018-06-14T05:51:46.257Z,55.41
2018-06-14T05:52:46.235Z,55.31
2018-06-14T05:53:46.325Z,55.45
2018-06-14T05:54:46.195Z,55.39
2018-06-14T05:55:46.193Z,55.28
2018-06-14T05:56:46.321Z,55.41
2018-06-14T05:57:46.300Z,55.45
2018-06-14T05:58:46.090Z,55.64
2018-06-14T05:59:46.205Z,55.45
2018-06-14T06:00:46.188Z,55.37
2018-06-14T06:01:46.271Z,55.31
2018-06-14T06:02:46.494Z,55.31
2018-06-14T06:03:46.213Z,55.34
2018-06-14T06:04:46.402Z,55.33
2018-06-14T06:05:46.238Z,55.4
2018-06-14T06:06:46.302Z,55.34
2018-06-14T06:07:46.227Z,55.41
2018-06-14T06:08:46.283Z,55.41
2018-06-14T06:09:46.279Z,55.43
2018-06-14T06:10:46.282Z,55.42
2018-06-14T06:11:46.263Z,55.42
2018-06-14T06:12:46.195Z,55.4
2018-06-14T06:13:46.424Z,55.34
2018-06-14T06:14:46.239Z,55.38
2018-06-14T06:15:46.385Z,55.37
2018-06-14T06:16:46.241Z,55.36
2018-06-14T06:17:46.359Z,55.33
2018-06-14T06:18:46.408Z,55.37
2018-06-14T06:19:46.447Z,55.37
2018-06-14T06:20:46.306Z,55.33
2018-06-14T06:21:46.180Z,55.4
2018-06-14T06:22:46.315Z,55.37
2018-06-14T06:23:46.349Z,55.32
2018-06-14T06:24:46.278Z,55.42
2018-06-14T06:25:46.243Z,55.37
2018-06-14T06:26:46.548Z,55.4
2018-06-14T06:27:46.419Z,55.4
2018-06-14T06:28:46.198Z,55.43
2018-06-14T06:29:46.340Z,55.49
2018-06-14T06:30:46.158Z,55.48
2018-06-14T06:31:46.389Z,55.6
2018-06-14T06:32:46.257Z,55.52
2018-06-14T06:33:46.466Z,55.64
2018-06-14T06:34:46.443Z,55.54
2018-06-14T06:35:46.279Z,55.64
2018-06-14T06:36:46.489Z,55.49
2018-06-14T06:37:46.378Z,55.53
2018-06-14T06:38:46.528Z,55.49
2018-06-14T06:39:46.255Z,55.56
2018-06-14T06:40:46.370Z,55.46
2018-06-14T06:41:46.376Z,55.57
2018-06-14T06:42:46.345Z,55.52
2018-06-14T06:43:47.108Z,55.5
2018-06-14T06:44:46.311Z,55.44
2018-06-14T06:45:46.245Z,55.46
2018-06-14T06:46:46.375Z,55.32
2018-06-14T06:47:46.516Z,55.37
2018-06-14T06:48:56.205Z,55.38
2018-06-14T06:49:46.327Z,55.49
2018-06-14T06:50:46.193Z,55.46
2018-06-14T06:51:46.186Z,55.19
2018-06-14T06:52:46.404Z,55.6
2018-06-14T06:53:46.222Z,55.35
2018-06-14T06:54:46.386Z,55.51
2018-06-14T06:55:46.288Z,55.1
2018-06-14T06:56:46.329Z,55.27
2018-06-14T06:57:46.480Z,55.29
2018-06-14T06:58:46.189Z,55.26
2018-06-14T06:59:46.297Z,55.32
2018-06-14T07:00:46.373Z,55.37
2018-06-14T07:01:46.225Z,55.48
2018-06-14T07:02:46.389Z,55.21
2018-06-14T07:03:46.146Z,55.4
2018-06-14T07:04:46.310Z,55.29
2018-06-14T07:05:46.326Z,55.47
2018-06-14T07:06:46.451Z,55.26
2018-06-14T07:07:46.357Z,55.44
2018-06-14T07:08:46.358Z,55.45
2018-06-14T07:09:56.210Z,55.44
2018-06-14T07:10:46.289Z,55.39
2018-06-14T07:11:46.387Z,55.34
2018-06-14T07:12:46.316Z,55.37
2018-06-14T07:13:46.369Z,55.4
2018-06-14T07:14:46.182Z,55.35
2018-06-14T07:15:46.171Z,55.37
2018-06-14T07:16:46.375Z,55.38
2018-06-14T07:17:46.285Z,55.19
2018-06-14T07:18:46.451Z,55.25
2018-06-14T07:19:46.388Z,55.26
2018-06-14T07:20:46.397Z,55.22
2018-06-14T07:21:46.529Z,55.29
2018-06-14T07:22:46.264Z,55.39
2018-06-14T07:23:46.285Z,55.33
2018-06-14T07:24:46.313Z,55.59
2018-06-14T07:25:46.285Z,55.49
2018-06-14T07:26:46.330Z,55.46
2018-06-14T07:27:46.269Z,55.43
2018-06-14T07:28:46.287Z,55.42
2018-06-14T07:29:46.221Z,55.37
2018-06-14T07:30:46.177Z,55.2
2018-06-14T07:31:46.294Z,55.48
2018-06-14T07:32:46.168Z,55.26
2018-06-14T07:33:46.389Z,55.38
2018-06-14T07:34:46.394Z,55.41
2018-06-14T07:35:46.387Z,55.36
2018-06-14T07:36:46.311Z,55.27
2018-06-14T07:37:46.354Z,55.4
2018-06-14T07:38:46.152Z,55.36
2018-06-14T07:39:46.344Z,55.35
2018-06-14T07:40:46.359Z,55.62
2018-06-14T07:41:46.385Z,55.34
2018-06-14T07:42:46.331Z,55.34
2018-06-14T07:43:46.348Z,55.59
2018-06-14T07:44:46.247Z,55.34
2018-06-14T07:45:46.271Z,55.55
2018-06-14T07:46:46.139Z,55.55
2018-06-14T07:47:46.149Z,55.35
2018-06-14T07:48:46.163Z,55.53
2018-06-14T07:49:46.334Z,55.23
2018-06-14T07:50:46.213Z,55.5
2018-06-14T07:51:46.379Z,55.47
2018-06-14T07:52:46.379Z,55.35
2018-06-14T07:53:46.161Z,55.61
2018-06-14T07:54:46.237Z,55.4
2018-06-14T07:55:46.283Z,55.5
2018-06-14T07:56:46.342Z,55.63
2018-06-14T07:57:46.230Z,55.63
2018-06-14T07:58:46.158Z,55.6
2018-06-14T07:59:46.227Z,55.61
2018-06-14T08:00:46.341Z,55.62
2018-06-14T08:01:46.316Z,55.52
2018-06-14T08:02:46.384Z,55.83
2018-06-14T08:03:46.336Z,55.8
2018-06-14T08:04:46.123Z,55.72
2018-06-14T08:05:46.251Z,55.72
2018-06-14T08:06:46.179Z,55.73
2018-06-14T08:07:46.227Z,55.79
2018-06-14T08:08:56.183Z,55.72
2018-06-14T08:09:46.219Z,55.65
2018-06-14T08:10:46.458Z,55.65
2018-06-14T08:11:46.358Z,55.77
2018-06-14T08:12:46.376Z,55.78
2018-06-14T08:13:46.116Z,55.78
2018-06-14T08:14:46.372Z,55.76
2018-06-14T08:15:46.306Z,55.78
2018-06-14T08:16:46.299Z,55.69
2018-06-14T08:17:46.289Z,55.79
2018-06-14T08:18:46.312Z,55.79
2018-06-14T08:19:46.163Z,55.7
2018-06-14T08:20:46.221Z,55.61
2018-06-14T08:21:46.154Z,55.81
2018-06-14T08:22:46.215Z,55.64
2018-06-14T08:23:46.305Z,55.64
2018-06-14T08:24:46.331Z,55.67
2018-06-14T08:25:46.464Z,55.72
2018-06-14T08:26:46.311Z,55.77
2018-06-14T08:27:46.201Z,55.75
2018-06-14T08:28:46.323Z,55.73
2018-06-14T08:29:46.161Z,55.68
2018-06-14T08:30:46.348Z,55.87
2018-06-14T08:31:46.206Z,55.68
2018-06-14T08:32:46.427Z,55.8
2018-06-14T08:33:46.342Z,55.8
2018-06-14T08:34:46.269Z,55.77
2018-06-14T08:35:46.286Z,55.74
2018-06-14T08:36:46.174Z,55.8
2018-06-14T08:37:46.248Z,55.76
2018-06-14T08:38:46.239Z,55.67
2018-06-14T08:39:46.270Z,55.68
2018-06-14T08:40:46.294Z,55.78
2018-06-14T08:41:46.348Z,55.75
2018-06-14T08:42:46.224Z,55.79
2018-06-14T08:43:46.245Z,55.69
2018-06-14T08:44:46.438Z,55.71
2018-06-14T08:45:46.352Z,55.66
2018-06-14T08:46:47.259Z,55.67
2018-06-14T08:47:46.264Z,55.63
2018-06-14T08:48:46.349Z,55.54
2018-06-14T08:49:46.143Z,55.54
2018-06-14T08:50:46.271Z,55.43
2018-06-14T08:51:46.249Z,55.44
2018-06-14T08:52:46.424Z,55.57
2018-06-14T08:53:46.450Z,55.57
2018-06-14T08:54:46.325Z,55.57
2018-06-14T08:55:46.137Z,55.66
2018-06-14T08:56:46.154Z,55.39
2018-06-14T08:57:46.998Z,55.55
2018-06-14T08:58:46.363Z,55.59
2018-06-14T08:59:46.270Z,55.64
2018-06-14T09:00:46.312Z,55.47
2018-06-14T09:01:46.278Z,55.55
2018-06-14T09:02:46.365Z,55.76
2018-06-14T09:03:46.377Z,55.57
2018-06-14T09:04:46.401Z,55.63
2018-06-14T09:05:46.147Z,55.6
2018-06-14T09:06:46.352Z,55.63
2018-06-14T09:07:46.463Z,55.67
2018-06-14T09:08:46.210Z,55.64
2018-06-14T09:09:46.978Z,55.7
2018-06-14T09:10:46.218Z,55.61
2018-06-14T09:11:46.325Z,55.61
2018-06-14T09:12:47.012Z,55.61
2018-06-14T09:13:46.193Z,55.53
2018-06-14T09:14:46.544Z,55.56
2018-06-14T09:15:46.759Z,55.44
2018-06-14T09:16:46.544Z,55.54
2018-06-14T09:17:46.549Z,55.54
2018-06-14T09:18:46.631Z,55.58
2018-06-14T09:19:46.554Z,55.46
2018-06-14T09:20:46.670Z,55.56
2018-06-14T09:21:46.151Z,55.42
2018-06-14T09:22:46.552Z,55.48
2018-06-14T09:23:46.272Z,55.48
2018-06-14T09:24:46.723Z,55.48
2018-06-14T09:25:46.930Z,55.42
2018-06-14T09:26:46.156Z,55.56
2018-06-14T09:27:46.218Z,55.52
2018-06-14T09:28:46.582Z,55.51
2018-06-14T09:29:46.564Z,55.53
2018-06-14T09:30:49.326Z,55.57
2018-06-14T09:31:46.090Z,55.51
2018-06-14T09:32:46.138Z,55.55
2018-06-14T09:33:46.178Z,55.55
2018-06-14T09:34:46.515Z,55.49
2018-06-14T09:35:46.810Z,55.45
2018-06-14T09:36:46.549Z,55.63
2018-06-14T09:37:46.606Z,55.43
2018-06-14T09:38:46.606Z,55.62
2018-06-14T09:39:46.562Z,55.49
2018-06-14T09:40:46.613Z,55.54
2018-06-14T09:41:46.160Z,55.42
2018-06-14T09:42:46.672Z,55.64
2018-06-14T09:43:46.511Z,55.53
2018-06-14T09:44:48.832Z,55.75
2018-06-14T09:45:47.638Z,55.63
2018-06-14T09:46:46.223Z,55.59
2018-06-14T09:47:49.082Z,55.61
2018-06-14T09:48:46.887Z,55.94
2018-06-14T09:49:46.237Z,55.89
2018-06-14T09:50:46.121Z,55.79
2018-06-14T09:51:46.199Z,55.85
2018-06-14T09:52:46.239Z,55.89
2018-06-14T09:53:46.371Z,55.81
2018-06-14T09:54:46.316Z,55.92
2018-06-14T09:55:46.238Z,55.77
2018-06-14T09:56:46.471Z,55.55
2018-06-14T09:57:46.197Z,55.68
2018-06-14T09:58:46.398Z,55.84
2018-06-14T09:59:46.186Z,55.61
2018-06-14T10:00:46.148Z,55.62
2018-06-14T10:01:46.309Z,55.73
2018-06-14T10:02:46.281Z,55.91
2018-06-14T10:03:46.388Z,55.74
2018-06-14T10:04:46.331Z,55.88
2018-06-14T10:05:46.329Z,55.92
2018-06-14T10:06:46.197Z,55.68
2018-06-14T10:07:46.260Z,55.7
2018-06-14T10:08:46.199Z,55.76
2018-06-14T10:09:46.263Z,55.61
2018-06-14T10:10:46.210Z,55.66
2018-06-14T10:11:46.301Z,55.77
2018-06-14T10:12:46.320Z,55.73
2018-06-14T10:13:46.369Z,55.7
2018-06-14T10:14:46.244Z,55.63
2018-06-14T10:15:46.326Z,55.45
2018-06-14T10:16:46.187Z,55.76
2018-06-14T10:17:46.260Z,55.79
2018-06-14T10:18:46.463Z,55.69
2018-06-14T10:19:46.282Z,55.42
2018-06-14T10:20:46.299Z,55.59
2018-06-14T10:21:46.649Z,55.63
2018-06-14T10:22:46.102Z,55.53
2018-06-14T10:23:46.166Z,55.79
2018-06-14T10:24:46.353Z,55.98
2018-06-14T10:25:46.321Z,55.73
2018-06-14T10:26:46.078Z,55.81
2018-06-14T10:27:46.109Z,55.78
2018-06-14T10:28:46.222Z,55.62
2018-06-14T10:29:46.310Z,55.62
2018-06-14T10:30:46.356Z,55.68
2018-06-14T10:31:46.172Z,55.54
2018-06-14T10:32:46.292Z,55.64
2018-06-14T10:33:46.172Z,55.64
2018-06-14T10:34:46.262Z,55.69
2018-06-14T10:35:46.033Z,55.8
2018-06-14T10:36:46.277Z,55.6
2018-06-14T10:37:46.139Z,55.58
2018-06-14T10:38:46.141Z,55.78
2018-06-14T10:39:46.189Z,55.49
2018-06-14T10:40:46.393Z,55.38
2018-06-14T10:41:46.287Z,55.69
2018-06-14T10:42:46.164Z,55.59
2018-06-14T10:43:46.314Z,55.65
2018-06-14T10:44:46.081Z,55.63
2018-06-14T10:45:46.423Z,55.73
2018-06-14T10:46:46.282Z,55.41
2018-06-14T10:47:46.223Z,55.71
2018-06-14T10:48:46.120Z,55.72
2018-06-14T10:49:46.179Z,55.67
2018-06-14T10:50:46.170Z,55.78
2018-06-14T10:51:46.251Z,55.82
2018-06-14T10:52:46.154Z,55.73
2018-06-14T10:53:46.196Z,55.63
2018-06-14T10:54:46.360Z,55.7
2018-06-14T10:55:46.365Z,55.7
2018-06-14T10:56:46.217Z,55.73
2018-06-14T10:57:46.268Z,55.49
2018-06-14T10:58:46.071Z,55.56
2018-06-14T10:59:46.375Z,55.61
2018-06-14T11:00:46.346Z,55.56
2018-06-14T11:01:46.332Z,55.55
2018-06-14T11:02:46.290Z,55.69
2018-06-14T11:03:46.295Z,55.78
2018-06-14T11:04:46.339Z,55.56
2018-06-14T11:05:46.302Z,55.61
2018-06-14T11:06:46.259Z,55.65
2018-06-14T11:07:46.352Z,55.69
2018-06-14T11:08:46.217Z,55.83
2018-06-14T11:09:46.221Z,55.66
2018-06-14T11:10:46.300Z,55.86
2018-06-14T11:11:46.250Z,55.47
2018-06-14T11:12:46.264Z,55.77
2018-06-14T11:13:46.128Z,55.87
2018-06-14T11:14:46.720Z,55.66
2018-06-14T11:15:46.364Z,55.57
2018-06-14T11:16:46.367Z,55.57
2018-06-14T11:17:46.383Z,55.79
2018-06-14T11:18:46.316Z,55.62
2018-06-14T11:19:46.258Z,55.75
2018-06-14T11:20:46.246Z,55.57
2018-06-14T11:21:46.294Z,55.74
2018-06-14T11:22:46.388Z,55.73
2018-06-14T11:23:46.378Z,55.57
2018-06-14T11:24:46.162Z,55.61
2018-06-14T11:25:46.272Z,55.66
2018-06-14T11:26:46.124Z,55.83
2018-06-14T11:27:46.233Z,55.64
2018-06-14T11:28:46.359Z,55.75
2018-06-14T11:29:46.180Z,55.77
2018-06-14T11:30:46.461Z,55.66
2018-06-14T11:31:46.331Z,55.79
2018-06-14T11:32:46.263Z,55.54
2018-06-14T11:33:46.184Z,55.7
2018-06-14T11:34:46.156Z,55.71
2018-06-14T11:35:46.247Z,55.79
2018-06-14T11:36:46.212Z,55.62
2018-06-14T11:37:46.419Z,55.69
2018-06-14T11:38:46.225Z,55.73
2018-06-14T11:39:46.368Z,55.63
2018-06-14T11:40:46.193Z,55.73
2018-06-14T11:41:46.335Z,55.75
2018-06-14T11:42:46.069Z,55.57
2018-06-14T11:43:46.407Z,55.44
2018-06-14T11:44:46.279Z,55.48
2018-06-14T11:45:46.360Z,55.58
2018-06-14T11:46:46.333Z,55.65
2018-06-14T11:47:46.247Z,55.71
2018-06-14T11:48:46.363Z,55.53
2018-06-14T11:49:46.372Z,55.52
2018-06-14T11:50:46.159Z,55.57
2018-06-14T11:51:46.100Z,55.92
2018-06-14T11:52:46.069Z,55.73
2018-06-14T11:53:46.327Z,55.46
2018-06-14T11:54:46.422Z,55.4
2018-06-14T11:55:46.197Z,55.68
2018-06-14T11:56:46.328Z,55.59
2018-06-14T11:57:46.229Z,55.66
2018-06-14T11:58:46.140Z,55.66
2018-06-14T11:59:46.130Z,55.72
2018-06-14T12:00:46.087Z,55.66
2018-06-14T12:01:46.473Z,55.61
2018-06-14T12:02:46.349Z,55.61
2018-06-14T12:03:46.073Z,55.78
2018-06-14T12:04:46.138Z,55.58
2018-06-14T12:05:46.394Z,55.91
2018-06-14T12:06:46.175Z,55.68
2018-06-14T12:07:46.301Z,55.62
2018-06-14T12:08:46.461Z,55.78
2018-06-14T12:09:46.135Z,55.6
2018-06-14T12:10:46.285Z,55.66
2018-06-14T12:11:46.320Z,55.65
2018-06-14T12:12:46.261Z,55.36
2018-06-14T12:13:46.364Z,55.7
2018-06-14T12:14:46.260Z,55.56
2018-06-14T12:15:46.173Z,55.61
2018-06-14T12:16:46.252Z,55.58
2018-06-14T12:17:46.335Z,55.59
2018-06-14T12:18:46.073Z,55.5
2018-06-14T12:19:46.242Z,55.55
2018-06-14T12:20:46.264Z,55.53
2018-06-14T12:21:46.308Z,55.5
2018-06-14T12:22:46.320Z,55.59
2018-06-14T12:23:46.393Z,55.62
2018-06-14T12:24:46.302Z,55.44
2018-06-14T12:25:46.174Z,55.65
2018-06-14T12:26:46.337Z,55.61
2018-06-14T12:27:46.131Z,55.53
2018-06-14T12:28:46.177Z,55.43
2018-06-14T12:29:46.180Z,55.7
2018-06-14T12:30:46.489Z,55.67
2018-06-14T12:31:46.394Z,55.69
2018-06-14T12:32:46.228Z,55.59
2018-06-14T12:33:46.363Z,55.42
2018-06-14T12:34:46.276Z,55.53
2018-06-14T12:35:46.303Z,55.37
2018-06-14T12:36:46.677Z,55.65
2018-06-14T12:37:46.559Z,55.59
2018-06-14T12:38:46.232Z,55.78
2018-06-14T12:39:46.300Z,55.63
2018-06-14T12:40:46.083Z,55.42
2018-06-14T12:41:46.306Z,55.27
2018-06-14T12:42:46.259Z,55.6
2018-06-14T12:43:46.198Z,55.6
2018-06-14T12:44:46.276Z,55.51
2018-06-14T12:45:46.338Z,55.37
2018-06-14T12:46:46.381Z,55.41
2018-06-14T12:47:46.277Z,55.5
2018-06-14T12:48:46.097Z,55.59
2018-06-14T12:49:46.305Z,55.58
2018-06-14T12:50:46.220Z,55.53
2018-06-14T12:51:46.222Z,55.63
2018-06-14T12:52:46.339Z,55.56
2018-06-14T12:53:46.587Z,55.58
2018-06-14T12:54:46.157Z,55.53
2018-06-14T12:55:46.224Z,55.54